sensor_id;sensor_type;location;lat;lon;timestamp;pressure;altitude;pressure_sealevel;temperature;humidity
72124;BME280;63818;37.134;-8.548;2023-06-22T00:02:07;101374.7;;;23.9;46.9
72124;BME280;63818;37.134;-8.548;2023-06-22T00:06:55;101385.7;;;23.9;47.1
72124;BME280;63818;37.134;-8.548;2023-06-22T00:11:41;101384.2;;;24.0;46.9
72124;BME280;63818;37.134;-8.548;2023-06-22T00:16:27;101381.0;;;23.9;47.3
72124;BME280;63818;37.134;-8.548;2023-06-22T00:21:13;101374.3;;;23.9;47.2
72124;BME280;63818;37.134;-8.548;2023-06-22T00:25:59;101386.5;;;24.0;47.2
72124;BME280;63818;37.134;-8.548;2023-06-22T00:30:45;101381.0;;;24.0;47.6
72124;BME280;63818;37.134;-8.548;2023-06-22T00:35:32;101382.5;;;23.9;47.4
72124;BME280;63818;37.134;-8.548;2023-06-22T00:40:17;101381.7;;;23.9;47.8
72124;BME280;63818;37.134;-8.548;2023-06-22T00:45:04;101391.2;;;23.9;47.9
72124;BME280;63818;37.134;-8.548;2023-06-22T00:49:50;101387.6;;;23.9;48.3
72124;BME280;63818;37.134;-8.548;2023-06-22T00:54:36;101392.7;;;23.9;48.4
72124;BME280;63818;37.134;-8.548;2023-06-22T00:59:23;101388.4;;;23.9;48.4
72124;BME280;63818;37.134;-8.548;2023-06-22T01:04:09;101385.3;;;23.9;48.9
72124;BME280;63818;37.134;-8.548;2023-06-22T01:09:01;101396.2;;;23.9;49.7
72124;BME280;63818;37.134;-8.548;2023-06-22T01:13:54;101397.8;;;23.9;50.5
72124;BME280;63818;37.134;-8.548;2023-06-22T01:18:43;101399.4;;;23.9;51.1
72124;BME280;63818;37.134;-8.548;2023-06-22T01:23:42;101405.3;;;23.9;51.4
72124;BME280;63818;37.134;-8.548;2023-06-22T01:28:48;101406.8;;;23.9;51.9
72124;BME280;63818;37.134;-8.548;2023-06-22T01:33:37;101401.7;;;23.8;51.5
72124;BME280;63818;37.134;-8.548;2023-06-22T01:38:24;101393.0;;;23.8;51.1
72124;BME280;63818;37.134;-8.548;2023-06-22T01:43:11;101389.5;;;23.7;50.9
72124;BME280;63818;37.134;-8.548;2023-06-22T01:47:57;101380.8;;;23.7;50.5
72124;BME280;63818;37.134;-8.548;2023-06-22T01:52:43;101382.0;;;23.7;50.4
72124;BME280;63818;37.134;-8.548;2023-06-22T01:57:29;101391.0;;;23.7;50.4
72124;BME280;63818;37.134;-8.548;2023-06-22T02:02:17;101382.0;;;23.7;50.4
72124;BME280;63818;37.134;-8.548;2023-06-22T02:07:07;101376.8;;;23.7;50.4
72124;BME280;63818;37.134;-8.548;2023-06-22T02:11:56;101374.9;;;23.6;50.4
72124;BME280;63818;37.134;-8.548;2023-06-22T02:16:42;101385.1;;;23.7;50.6
72124;BME280;63818;37.134;-8.548;2023-06-22T02:21:28;101384.0;;;23.7;50.9
72124;BME280;63818;37.134;-8.548;2023-06-22T02:26:17;101390.5;;;23.6;51.1
72124;BME280;63818;37.134;-8.548;2023-06-22T02:31:04;101385.4;;;23.6;50.8
72124;BME280;63818;37.134;-8.548;2023-06-22T02:35:49;101383.4;;;23.5;50.9
72124;BME280;63818;37.134;-8.548;2023-06-22T02:40:38;101385.8;;;23.5;50.6
72124;BME280;63818;37.134;-8.548;2023-06-22T02:45:23;101394.4;;;23.5;50.5
72124;BME280;63818;37.134;-8.548;2023-06-22T02:50:10;101390.7;;;23.4;50.6
72124;BME280;63818;37.134;-8.548;2023-06-22T02:54:56;101399.4;;;23.5;50.9
72124;BME280;63818;37.134;-8.548;2023-06-22T02:59:41;101395.9;;;23.5;51.0
72124;BME280;63818;37.134;-8.548;2023-06-22T03:04:27;101388.4;;;23.4;51.2
72124;BME280;63818;37.134;-8.548;2023-06-22T03:09:13;101400.9;;;23.4;51.0
72124;BME280;63818;37.134;-8.548;2023-06-22T03:13:59;101397.8;;;23.4;51.4
72124;BME280;63818;37.134;-8.548;2023-06-22T03:18:45;101396.6;;;23.4;51.9
72124;BME280;63818;37.134;-8.548;2023-06-22T03:23:31;101407.6;;;23.4;52.0
72124;BME280;63818;37.134;-8.548;2023-06-22T03:28:17;101407.2;;;23.4;51.6
72124;BME280;63818;37.134;-8.548;2023-06-22T03:33:06;101407.6;;;23.5;51.3
72124;BME280;63818;37.134;-8.548;2023-06-22T03:37:52;101407.6;;;23.4;51.6
72124;BME280;63818;37.134;-8.548;2023-06-22T03:42:38;101411.0;;;23.3;51.7
72124;BME280;63818;37.134;-8.548;2023-06-22T03:47:24;101403.6;;;23.3;51.6
72124;BME280;63818;37.134;-8.548;2023-06-22T03:52:11;101416.1;;;23.3;51.8
72124;BME280;63818;37.134;-8.548;2023-06-22T03:56:57;101416.1;;;23.3;52.0
72124;BME280;63818;37.134;-8.548;2023-06-22T04:01:44;101417.6;;;23.3;52.0
72124;BME280;63818;37.134;-8.548;2023-06-22T04:06:29;101429.0;;;23.2;52.2
72124;BME280;63818;37.134;-8.548;2023-06-22T04:11:15;101437.2;;;23.3;52.3
72124;BME280;63818;37.134;-8.548;2023-06-22T04:16:01;101434.2;;;23.3;52.3
72124;BME280;63818;37.134;-8.548;2023-06-22T04:20:47;101436.1;;;23.4;52.0
72124;BME280;63818;37.134;-8.548;2023-06-22T04:25:34;101439.3;;;23.4;51.9
72124;BME280;63818;37.134;-8.548;2023-06-22T04:30:20;101444.7;;;23.3;52.4
72124;BME280;63818;37.134;-8.548;2023-06-22T04:35:06;101444.7;;;23.3;52.2
72124;BME280;63818;37.134;-8.548;2023-06-22T04:39:54;101446.3;;;23.3;52.5
72124;BME280;63818;37.134;-8.548;2023-06-22T04:44:42;101447.4;;;23.2;52.6
72124;BME280;63818;37.134;-8.548;2023-06-22T04:49:28;101454.8;;;23.2;52.7
72124;BME280;63818;37.134;-8.548;2023-06-22T04:54:16;97863.8;;;-1.0;51.9
72124;BME280;63818;37.134;-8.548;2023-06-22T04:59:03;101455.9;;;23.2;52.9
72124;BME280;63818;37.134;-8.548;2023-06-22T05:03:49;101453.6;;;23.2;53.2
72124;BME280;63818;37.134;-8.548;2023-06-22T05:08:35;101462.2;;;23.2;53.2
72124;BME280;63818;37.134;-8.548;2023-06-22T05:13:21;101461.4;;;23.2;52.8
72124;BME280;63818;37.134;-8.548;2023-06-22T05:18:07;101466.4;;;23.1;52.2
72124;BME280;63818;37.134;-8.548;2023-06-22T05:22:53;101475.0;;;23.1;52.2
72124;BME280;63818;37.134;-8.548;2023-06-22T05:27:39;101474.7;;;23.1;51.9
72124;BME280;63818;37.134;-8.548;2023-06-22T05:32:25;101477.4;;;23.1;52.1
72124;BME280;63818;37.134;-8.548;2023-06-22T05:37:11;101483.7;;;23.1;51.9
72124;BME280;63818;37.134;-8.548;2023-06-22T05:41:57;101489.1;;;23.1;51.7
72124;BME280;63818;37.134;-8.548;2023-06-22T05:46:45;101498.1;;;23.0;51.5
72124;BME280;63818;37.134;-8.548;2023-06-22T05:51:32;101501.6;;;23.0;51.6
72124;BME280;63818;37.134;-8.548;2023-06-22T05:56:18;101500.8;;;23.1;51.4
72124;BME280;63818;37.134;-8.548;2023-06-22T06:01:04;101519.6;;;23.1;52.0
72124;BME280;63818;37.134;-8.548;2023-06-22T06:05:55;101515.3;;;23.1;51.7
72124;BME280;63818;37.134;-8.548;2023-06-22T06:10:43;101519.7;;;23.1;51.8
72124;BME280;63818;37.134;-8.548;2023-06-22T06:15:29;101514.6;;;23.1;52.3
72124;BME280;63818;37.134;-8.548;2023-06-22T06:20:23;101530.3;;;23.1;52.4
72124;BME280;63818;37.134;-8.548;2023-06-22T06:25:10;101534.6;;;23.1;52.5
72124;BME280;63818;37.134;-8.548;2023-06-22T06:29:58;101534.2;;;23.1;52.3
72124;BME280;63818;37.134;-8.548;2023-06-22T06:34:44;101542.1;;;23.1;52.1
72124;BME280;63818;37.134;-8.548;2023-06-22T06:39:34;101544.0;;;23.2;51.8
72124;BME280;63818;37.134;-8.548;2023-06-22T06:44:22;97953.5;;;-1.0;50.9
72124;BME280;63818;37.134;-8.548;2023-06-22T06:49:08;101563.7;;;23.2;51.6
72124;BME280;63818;37.134;-8.548;2023-06-22T06:53:56;101561.0;;;23.2;51.6
72124;BME280;63818;37.134;-8.548;2023-06-22T06:58:42;101571.6;;;23.3;51.5
72124;BME280;63818;37.134;-8.548;2023-06-22T07:03:34;101570.1;;;23.3;51.7
72124;BME280;63818;37.134;-8.548;2023-06-22T07:08:20;101567.8;;;23.3;51.6
72124;BME280;63818;37.134;-8.548;2023-06-22T07:13:08;101576.8;;;23.4;51.5
72124;BME280;63818;37.134;-8.548;2023-06-22T07:17:54;101570.6;;;23.4;51.4
72124;BME280;63818;37.134;-8.548;2023-06-22T07:27:32;101574.6;;;23.5;51.6
72124;BME280;63818;37.134;-8.548;2023-06-22T07:32:18;101577.8;;;23.5;50.7
72124;BME280;63818;37.134;-8.548;2023-06-22T07:41:56;101569.2;;;23.5;49.6
72124;BME280;63818;37.134;-8.548;2023-06-22T07:46:42;101569.2;;;23.5;48.6
72124;BME280;63818;37.134;-8.548;2023-06-22T07:51:28;101573.5;;;23.5;47.9
72124;BME280;63818;37.134;-8.548;2023-06-22T07:56:14;101581.0;;;23.6;47.3
72124;BME280;63818;37.134;-8.548;2023-06-22T08:01:04;101572.4;;;23.6;47.5
72124;BME280;63818;37.134;-8.548;2023-06-22T08:05:55;101572.9;;;23.6;47.0
72124;BME280;63818;37.134;-8.548;2023-06-22T08:10:41;101570.5;;;23.7;46.8
72124;BME280;63818;37.134;-8.548;2023-06-22T08:15:30;101569.0;;;23.7;46.5
72124;BME280;63818;37.134;-8.548;2023-06-22T08:20:16;101567.8;;;23.7;46.2
72124;BME280;63818;37.134;-8.548;2023-06-22T08:25:02;101563.2;;;23.7;45.9
72124;BME280;63818;37.134;-8.548;2023-06-22T08:29:48;101573.3;;;23.7;45.3
72124;BME280;63818;37.134;-8.548;2023-06-22T08:34:34;101566.7;;;23.8;45.0
72124;BME280;63818;37.134;-8.548;2023-06-22T08:39:20;101576.5;;;23.8;44.4
72124;BME280;63818;37.134;-8.548;2023-06-22T08:44:06;101578.5;;;23.8;44.9
72124;BME280;63818;37.134;-8.548;2023-06-22T08:48:52;101575.0;;;23.9;44.5
72124;BME280;63818;37.134;-8.548;2023-06-22T08:53:38;101568.4;;;23.9;44.1
72124;BME280;63818;37.134;-8.548;2023-06-22T08:58:24;101573.5;;;23.9;43.5
72124;BME280;63818;37.134;-8.548;2023-06-22T09:03:13;101563.8;;;23.9;43.4
72124;BME280;63818;37.134;-8.548;2023-06-22T09:07:59;101568.1;;;24.0;43.6
72124;BME280;63818;37.134;-8.548;2023-06-22T09:12:47;101568.9;;;24.0;43.6
72124;BME280;63818;37.134;-8.548;2023-06-22T09:17:33;101568.1;;;24.0;43.4
72124;BME280;63818;37.134;-8.548;2023-06-22T09:22:29;101560.7;;;24.1;44.2
72124;BME280;63818;37.134;-8.548;2023-06-22T09:27:15;101559.2;;;24.1;44.6
72124;BME280;63818;37.134;-8.548;2023-06-22T09:32:01;101558.0;;;24.1;44.4
72124;BME280;63818;37.134;-8.548;2023-06-22T09:36:47;101561.6;;;24.1;44.8
72124;BME280;63818;37.134;-8.548;2023-06-22T09:41:33;101568.2;;;24.1;44.9
72124;BME280;63818;37.134;-8.548;2023-06-22T09:46:19;101570.2;;;24.2;45.0
72124;BME280;63818;37.134;-8.548;2023-06-22T09:51:05;101567.1;;;24.2;45.1
72124;BME280;63818;37.134;-8.548;2023-06-22T09:55:53;101562.0;;;24.2;45.2
72124;BME280;63818;37.134;-8.548;2023-06-22T10:00:39;101573.4;;;24.2;44.7
72124;BME280;63818;37.134;-8.548;2023-06-22T10:05:25;101561.3;;;24.2;44.9
72124;BME280;63818;37.134;-8.548;2023-06-22T10:10:12;101562.5;;;24.2;45.2
72124;BME280;63818;37.134;-8.548;2023-06-22T10:14:58;101560.5;;;24.2;45.3
72124;BME280;63818;37.134;-8.548;2023-06-22T10:19:47;101567.6;;;24.3;44.9
72124;BME280;63818;37.134;-8.548;2023-06-22T10:24:33;101568.8;;;24.3;45.1
72124;BME280;63818;37.134;-8.548;2023-06-22T10:29:21;101553.9;;;24.3;44.8
72124;BME280;63818;37.134;-8.548;2023-06-22T10:34:07;101558.7;;;24.4;45.0
72124;BME280;63818;37.134;-8.548;2023-06-22T10:38:54;101546.1;;;24.4;44.7
72124;BME280;63818;37.134;-8.548;2023-06-22T10:43:39;101546.1;;;24.4;44.4
72124;BME280;63818;37.134;-8.548;2023-06-22T10:48:27;101541.4;;;24.4;44.2
72124;BME280;63818;37.134;-8.548;2023-06-22T10:53:13;101546.5;;;24.4;44.5
72124;BME280;63818;37.134;-8.548;2023-06-22T10:58:01;101549.3;;;24.5;44.8
72124;BME280;63818;37.134;-8.548;2023-06-22T11:02:47;101553.6;;;24.5;45.1
72124;BME280;63818;37.134;-8.548;2023-06-22T11:07:33;101541.8;;;24.5;44.8
72124;BME280;63818;37.134;-8.548;2023-06-22T11:12:19;101543.0;;;24.5;44.4
72124;BME280;63818;37.134;-8.548;2023-06-22T11:17:10;101544.2;;;24.5;44.3
72124;BME280;63818;37.134;-8.548;2023-06-22T11:21:56;101543.9;;;24.5;44.5
72124;BME280;63818;37.134;-8.548;2023-06-22T11:26:46;101552.2;;;24.6;44.8
72124;BME280;63818;37.134;-8.548;2023-06-22T11:31:32;101547.9;;;24.6;45.0
72124;BME280;63818;37.134;-8.548;2023-06-22T11:36:18;101557.3;;;24.7;46.1
72124;BME280;63818;37.134;-8.548;2023-06-22T11:41:05;101565.9;;;24.6;45.6
72124;BME280;63818;37.134;-8.548;2023-06-22T11:45:53;101554.9;;;24.5;45.6
72124;BME280;63818;37.134;-8.548;2023-06-22T11:50:39;101555.2;;;24.5;45.8
72124;BME280;63818;37.134;-8.548;2023-06-22T11:55:25;101569.8;;;24.5;46.0
72124;BME280;63818;37.134;-8.548;2023-06-22T12:00:14;101582.3;;;24.5;46.3
72124;BME280;63818;37.134;-8.548;2023-06-22T12:05:00;101582.3;;;24.5;46.4
72124;BME280;63818;37.134;-8.548;2023-06-22T12:09:46;101576.0;;;24.5;46.3
72124;BME280;63818;37.134;-8.548;2023-06-22T12:14:33;101579.2;;;24.5;46.9
72124;BME280;63818;37.134;-8.548;2023-06-22T12:19:21;101582.8;;;24.6;48.0
72124;BME280;63818;37.134;-8.548;2023-06-22T12:24:07;101575.3;;;24.6;49.0
72124;BME280;63818;37.134;-8.548;2023-06-22T12:28:58;101578.5;;;24.6;49.4
72124;BME280;63818;37.134;-8.548;2023-06-22T12:33:44;101580.4;;;24.6;50.1
72124;BME280;63818;37.134;-8.548;2023-06-22T12:38:34;101565.5;;;24.7;50.5
72124;BME280;63818;37.134;-8.548;2023-06-22T12:43:22;101584.5;;;24.7;51.3
72124;BME280;63818;37.134;-8.548;2023-06-22T12:48:08;101571.9;;;24.7;51.1
72124;BME280;63818;37.134;-8.548;2023-06-22T12:52:54;101571.9;;;24.8;51.3
72124;BME280;63818;37.134;-8.548;2023-06-22T12:57:46;101563.7;;;24.8;51.4
72124;BME280;63818;37.134;-8.548;2023-06-22T13:02:35;101564.8;;;24.8;51.5
72124;BME280;63818;37.134;-8.548;2023-06-22T13:07:21;101562.1;;;24.8;52.0
72124;BME280;63818;37.134;-8.548;2023-06-22T13:12:10;101551.2;;;24.9;52.1
72124;BME280;63818;37.134;-8.548;2023-06-22T13:16:56;101543.0;;;25.0;51.8
72124;BME280;63818;37.134;-8.548;2023-06-22T13:21:45;101545.7;;;25.0;51.3
72124;BME280;63818;37.134;-8.548;2023-06-22T13:26:33;101545.0;;;25.0;51.7
72124;BME280;63818;37.134;-8.548;2023-06-22T13:31:22;101554.0;;;25.0;51.8
72124;BME280;63818;37.134;-8.548;2023-06-22T13:36:10;101554.8;;;25.1;52.0
72124;BME280;63818;37.134;-8.548;2023-06-22T13:40:56;101553.7;;;25.1;51.7
72124;BME280;63818;37.134;-8.548;2023-06-22T13:45:42;101543.9;;;25.1;51.5
72124;BME280;63818;37.134;-8.548;2023-06-22T13:50:28;101538.8;;;25.2;51.3
72124;BME280;63818;37.134;-8.548;2023-06-22T13:55:17;101526.2;;;25.2;51.0
72124;BME280;63818;37.134;-8.548;2023-06-22T14:00:05;101531.0;;;25.3;50.7
72124;BME280;63818;37.134;-8.548;2023-06-22T14:04:51;101533.3;;;25.4;50.7
72124;BME280;63818;37.134;-8.548;2023-06-22T14:09:37;101517.6;;;25.4;50.5
72124;BME280;63818;37.134;-8.548;2023-06-22T14:14:23;101513.7;;;25.4;50.0
72124;BME280;63818;37.134;-8.548;2023-06-22T14:19:09;101512.1;;;25.4;49.4
72124;BME280;63818;37.134;-8.548;2023-06-22T14:23:55;101503.9;;;25.5;48.9
72124;BME280;63818;37.134;-8.548;2023-06-22T14:28:44;101504.7;;;25.6;48.2
72124;BME280;63818;37.134;-8.548;2023-06-22T14:33:31;101485.5;;;25.9;46.8
72124;BME280;63818;37.134;-8.548;2023-06-22T14:38:18;101491.0;;;25.9;46.3
72124;BME280;63818;37.134;-8.548;2023-06-22T14:43:04;101506.3;;;26.0;45.2
72124;BME280;63818;37.134;-8.548;2023-06-22T14:47:50;101486.6;;;26.1;44.2
72124;BME280;63818;37.134;-8.548;2023-06-22T14:52:36;101475.2;;;26.2;44.1
72124;BME280;63818;37.134;-8.548;2023-06-22T14:57:22;101468.5;;;26.3;43.4
72124;BME280;63818;37.134;-8.548;2023-06-22T15:02:08;101470.1;;;26.3;42.6
72124;BME280;63818;37.134;-8.548;2023-06-22T15:06:54;101481.5;;;26.4;42.4
72124;BME280;63818;37.134;-8.548;2023-06-22T15:11:39;101467.4;;;26.4;42.0
72124;BME280;63818;37.134;-8.548;2023-06-22T15:16:25;101463.4;;;26.4;41.8
72124;BME280;63818;37.134;-8.548;2023-06-22T15:21:12;101481.1;;;26.5;41.6
72124;BME280;63818;37.134;-8.548;2023-06-22T15:25:58;101484.3;;;26.6;41.7
72124;BME280;63818;37.134;-8.548;2023-06-22T15:30:47;101473.2;;;26.6;41.5
72124;BME280;63818;37.134;-8.548;2023-06-22T15:35:33;101491.3;;;26.6;41.6
72124;BME280;63818;37.134;-8.548;2023-06-22T15:40:19;101493.7;;;26.6;42.0
72124;BME280;63818;37.134;-8.548;2023-06-22T15:45:05;101487.4;;;26.7;42.6
72124;BME280;63818;37.134;-8.548;2023-06-22T15:49:51;101499.2;;;26.7;43.6
72124;BME280;63818;37.134;-8.548;2023-06-22T15:54:37;101476.3;;;26.9;43.7
72124;BME280;63818;37.134;-8.548;2023-06-22T15:59:23;101475.5;;;26.9;44.4
72124;BME280;63818;37.134;-8.548;2023-06-22T16:04:09;101475.7;;;27.2;43.2
72124;BME280;63818;37.134;-8.548;2023-06-22T16:08:56;101460.3;;;27.4;43.8
72124;BME280;63818;37.134;-8.548;2023-06-22T16:13:42;101483.1;;;27.5;43.4
72124;BME280;63818;37.134;-8.548;2023-06-22T16:18:28;101482.6;;;27.6;43.6
72124;BME280;63818;37.134;-8.548;2023-06-22T16:23:14;101461.7;;;27.6;43.7
72124;BME280;63818;37.134;-8.548;2023-06-22T16:28:00;101468.4;;;27.6;43.7
72124;BME280;63818;37.134;-8.548;2023-06-22T16:32:53;101445.5;;;27.6;43.2
72124;BME280;63818;37.134;-8.548;2023-06-22T16:37:39;101451.1;;;27.6;43.8
72124;BME280;63818;37.134;-8.548;2023-06-22T16:42:25;101455.8;;;27.6;43.8
72124;BME280;63818;37.134;-8.548;2023-06-22T16:47:11;101436.1;;;27.5;44.0
72124;BME280;63818;37.134;-8.548;2023-06-22T16:51:57;101456.2;;;27.5;44.2
72124;BME280;63818;37.134;-8.548;2023-06-22T16:56:44;101446.4;;;27.5;44.4
72124;BME280;63818;37.134;-8.548;2023-06-22T17:01:32;101442.1;;;27.5;44.8
72124;BME280;63818;37.134;-8.548;2023-06-22T17:06:19;101442.1;;;27.5;44.3
72124;BME280;63818;37.134;-8.548;2023-06-22T17:11:05;101478.3;;;27.5;44.3
72124;BME280;63818;37.134;-8.548;2023-06-22T17:15:55;101440.5;;;27.5;44.2
72124;BME280;63818;37.134;-8.548;2023-06-22T17:20:43;101452.4;;;27.4;44.9
72124;BME280;63818;37.134;-8.548;2023-06-22T17:25:29;101463.8;;;27.4;44.8
72124;BME280;63818;37.134;-8.548;2023-06-22T17:30:18;101464.2;;;27.4;45.1
72124;BME280;63818;37.134;-8.548;2023-06-22T17:35:05;101463.8;;;27.4;44.9
72124;BME280;63818;37.134;-8.548;2023-06-22T17:39:53;101470.9;;;27.4;44.9
72124;BME280;63818;37.134;-8.548;2023-06-22T17:44:39;101476.8;;;27.4;44.8
72124;BME280;63818;37.134;-8.548;2023-06-22T17:49:28;101472.9;;;27.3;44.3
72124;BME280;63818;37.134;-8.548;2023-06-22T17:54:14;101463.5;;;27.3;44.6
72124;BME280;63818;37.134;-8.548;2023-06-22T17:59:00;101461.9;;;27.3;44.7
72124;BME280;63818;37.134;-8.548;2023-06-22T18:03:47;101470.6;;;27.3;44.7
72124;BME280;63818;37.134;-8.548;2023-06-22T18:08:35;101467.8;;;27.3;44.6
72124;BME280;63818;37.134;-8.548;2023-06-22T18:13:22;101464.2;;;27.3;44.4
72124;BME280;63818;37.134;-8.548;2023-06-22T18:18:09;101471.4;;;27.3;44.7
72124;BME280;63818;37.134;-8.548;2023-06-22T18:22:57;101470.6;;;27.2;44.7
72124;BME280;63818;37.134;-8.548;2023-06-22T18:27:46;101476.1;;;27.2;44.6
72124;BME280;63818;37.134;-8.548;2023-06-22T18:32:32;101471.4;;;27.2;44.8
72124;BME280;63818;37.134;-8.548;2023-06-22T18:37:19;101468.7;;;27.2;44.6
72124;BME280;63818;37.134;-8.548;2023-06-22T18:42:08;101486.0;;;27.2;44.4
72124;BME280;63818;37.134;-8.548;2023-06-22T18:46:57;101486.4;;;27.2;44.5
72124;BME280;63818;37.134;-8.548;2023-06-22T18:51:53;101478.5;;;27.2;44.3
72124;BME280;63818;37.134;-8.548;2023-06-22T18:56:51;101478.6;;;27.1;44.2
72124;BME280;63818;37.134;-8.548;2023-06-22T19:01:37;101473.5;;;27.1;44.3
72124;BME280;63818;37.134;-8.548;2023-06-22T19:06:56;101490.4;;;27.1;44.5
72124;BME280;63818;37.134;-8.548;2023-06-22T19:11:45;101485.3;;;27.0;44.1
72124;BME280;63818;37.134;-8.548;2023-06-22T19:16:31;101490.0;;;27.0;44.2
72124;BME280;63818;37.134;-8.548;2023-06-22T19:21:22;101483.4;;;27.0;44.5
72124;BME280;63818;37.134;-8.548;2023-06-22T19:26:10;101488.9;;;26.9;44.5
72124;BME280;63818;37.134;-8.548;2023-06-22T19:30:58;101491.7;;;26.9;44.6
72124;BME280;63818;37.134;-8.548;2023-06-22T19:35:47;101503.5;;;26.8;44.6
72124;BME280;63818;37.134;-8.548;2023-06-22T19:40:38;101493.6;;;26.8;44.5
72124;BME280;63818;37.134;-8.548;2023-06-22T19:45:27;101511.4;;;26.8;44.5
72124;BME280;63818;37.134;-8.548;2023-06-22T19:50:13;101513.4;;;26.7;44.9
72124;BME280;63818;37.134;-8.548;2023-06-22T19:54:59;101509.0;;;26.7;44.9
72124;BME280;63818;37.134;-8.548;2023-06-22T19:59:45;101514.9;;;26.6;45.0
72124;BME280;63818;37.134;-8.548;2023-06-22T20:04:34;101511.0;;;26.6;45.4
72124;BME280;63818;37.134;-8.548;2023-06-22T20:09:21;101512.2;;;26.6;45.3
72124;BME280;63818;37.134;-8.548;2023-06-22T20:14:07;101518.5;;;26.5;45.5
72124;BME280;63818;37.134;-8.548;2023-06-22T20:19:06;101508.7;;;26.5;45.7
72124;BME280;63818;37.134;-8.548;2023-06-22T20:23:53;101509.5;;;26.5;45.4
72124;BME280;63818;37.134;-8.548;2023-06-22T20:28:39;101513.0;;;26.5;45.7
72124;BME280;63818;37.134;-8.548;2023-06-22T20:33:26;101509.5;;;26.5;45.5
72124;BME280;63818;37.134;-8.548;2023-06-22T20:38:12;101514.6;;;26.5;45.5
72124;BME280;63818;37.134;-8.548;2023-06-22T20:42:59;101513.4;;;26.5;45.1
72124;BME280;63818;37.134;-8.548;2023-06-22T20:47:45;101510.3;;;26.4;45.2
72124;BME280;63818;37.134;-8.548;2023-06-22T20:52:31;101515.0;;;26.4;45.0
72124;BME280;63818;37.134;-8.548;2023-06-22T20:57:18;101505.1;;;26.5;45.4
72124;BME280;63818;37.134;-8.548;2023-06-22T21:02:04;101520.1;;;26.5;44.9
72124;BME280;63818;37.134;-8.548;2023-06-22T21:06:50;101518.9;;;26.4;45.2
72124;BME280;63818;37.134;-8.548;2023-06-22T21:11:36;101518.5;;;26.4;44.9
72124;BME280;63818;37.134;-8.548;2023-06-22T21:16:22;101518.9;;;26.4;45.2
72124;BME280;63818;37.134;-8.548;2023-06-22T21:21:08;101516.6;;;26.5;45.2
72124;BME280;63818;37.134;-8.548;2023-06-22T21:25:54;101520.5;;;26.4;45.1
72124;BME280;63818;37.134;-8.548;2023-06-22T21:30:40;101516.2;;;26.5;45.1
72124;BME280;63818;37.134;-8.548;2023-06-22T21:35:26;101524.4;;;26.5;45.2
72124;BME280;63818;37.134;-8.548;2023-06-22T21:40:13;101524.8;;;26.5;45.0
72124;BME280;63818;37.134;-8.548;2023-06-22T21:44:59;101522.9;;;26.5;45.1
72124;BME280;63818;37.134;-8.548;2023-06-22T21:49:45;101518.9;;;26.5;45.2
72124;BME280;63818;37.134;-8.548;2023-06-22T21:54:31;101525.2;;;26.5;45.2
72124;BME280;63818;37.134;-8.548;2023-06-22T21:59:16;101517.3;;;26.5;45.2
72124;BME280;63818;37.134;-8.548;2023-06-22T22:04:03;101532.7;;;26.5;45.5
72124;BME280;63818;37.134;-8.548;2023-06-22T22:08:49;101526.4;;;26.5;45.3
72124;BME280;63818;37.134;-8.548;2023-06-22T22:13:35;101540.2;;;26.5;45.6
72124;BME280;63818;37.134;-8.548;2023-06-22T22:18:21;101542.1;;;26.5;45.4
72124;BME280;63818;37.134;-8.548;2023-06-22T22:23:09;101530.3;;;26.5;45.3
72124;BME280;63818;37.134;-8.548;2023-06-22T22:27:55;101531.9;;;26.5;45.7
72124;BME280;63818;37.134;-8.548;2023-06-22T22:32:41;101534.7;;;26.4;45.6
72124;BME280;63818;37.134;-8.548;2023-06-22T22:37:28;101528.4;;;26.4;45.6
72124;BME280;63818;37.134;-8.548;2023-06-22T22:42:15;101531.9;;;26.4;45.8
72124;BME280;63818;37.134;-8.548;2023-06-22T22:47:01;101532.3;;;26.4;46.0
72124;BME280;63818;37.134;-8.548;2023-06-22T22:51:46;101534.3;;;26.4;46.0
72124;BME280;63818;37.134;-8.548;2023-06-22T22:56:33;101534.7;;;26.5;46.0
72124;BME280;63818;37.134;-8.548;2023-06-22T23:01:20;101529.9;;;26.5;46.2
72124;BME280;63818;37.134;-8.548;2023-06-22T23:06:06;101530.8;;;26.4;46.3
72124;BME280;63818;37.134;-8.548;2023-06-22T23:10:52;101534.7;;;26.4;46.5
72124;BME280;63818;37.134;-8.548;2023-06-22T23:15:38;101533.1;;;26.4;46.6
72124;BME280;63818;37.134;-8.548;2023-06-22T23:20:23;101541.0;;;26.4;46.4
72124;BME280;63818;37.134;-8.548;2023-06-22T23:25:10;101537.8;;;26.4;46.5
72124;BME280;63818;37.134;-8.548;2023-06-22T23:29:56;101539.0;;;26.4;46.8
72124;BME280;63818;37.134;-8.548;2023-06-22T23:34:42;101535.1;;;26.4;47.0
72124;BME280;63818;37.134;-8.548;2023-06-22T23:39:28;101528.0;;;26.4;47.2
72124;BME280;63818;37.134;-8.548;2023-06-22T23:44:16;101531.9;;;26.4;47.6
72124;BME280;63818;37.134;-8.548;2023-06-22T23:49:02;101533.5;;;26.4;48.0
72124;BME280;63818;37.134;-8.548;2023-06-22T23:53:49;101528.4;;;26.4;47.8
72124;BME280;63818;37.134;-8.548;2023-06-22T23:58:34;101535.1;;;26.4;47.9
